This is the latest recevied weather packets stored in our database for station/object HB9UQS-13. If no packets are shown the sender has not sent any weather packets the latest 10 day(s).
| Time | Temp. | Humidity | Pressure | Rain* | Wind** | Luminosity | Snow |
|---|---|---|---|---|---|---|---|
| 1778236650 | 15.56° C | 62% | 929.8 hPa | 0 mm | - | 0 W/m² | - |
| 1778234851 | 16.11° C | 65% | 929.8 hPa | 0 mm | - | 0 W/m² | - |
| 1778233050 | 15.56° C | 73% | 929.8 hPa | 0 mm | - | 0 W/m² | - |
| 1778231250 | 15° C | 71% | 930 hPa | 0 mm | - | 0 W/m² | - |
| 1778229450 | 13.89° C | 74% | 929.9 hPa | 0 mm | - | 0 W/m² | - |
| 1778227650 | 13.89° C | 70% | 929.9 hPa | 0 mm | - | 0 W/m² | - |
| 1778225850 | 12.22° C | 76% | 929.9 hPa | 0 mm | - | 0 W/m² | - |
| 1778224050 | 10.56° C | 83% | 929.7 hPa | 0 mm | - | 0 W/m² | - |
| 1778222250 | 8.33° C | 91% | 929.5 hPa | 0 mm | - | 0 W/m² | - |
| 1778220450 | 7.78° C | 94% | 929.4 hPa | 0 mm | - | 0 W/m² | - |
| 1778218651 | 6.11° C | 95% | 929.5 hPa | 0 mm | - | 0 W/m² | - |
| 1778216851 | 5° C | 96% | 929.4 hPa | 0 mm | - | 0 W/m² | - |
| 1778215050 | 5.56° C | 96% | 929.3 hPa | 0 mm | - | 0 W/m² | - |
| 1778213252 | 5.56° C | 95% | 929.1 hPa | 0 mm | - | 0 W/m² | - |
| 1778211451 | 5.56° C | 94% | 929 hPa | 0 mm | - | 0 W/m² | - |
| 1778209650 | 5.56° C | 94% | 929.1 hPa | 0 mm | - | 0 W/m² | - |
| 1778207850 | 5.56° C | 92% | 929.1 hPa | 0 mm | - | 0 W/m² | - |
| 1778206050 | 6.11° C | 91% | 928.9 hPa | 0 mm | - | 0 W/m² | - |
| 1778204250 | 6.67° C | 88% | 928.8 hPa | 0 mm | - | 0 W/m² | - |
| 1778202450 | 6.67° C | 87% | 928.7 hPa | 0 mm | - | 0 W/m² | - |
| 1778200650 | 7.22° C | 85% | 929 hPa | 0 mm | - | 0 W/m² | - |
| 1778198851 | 7.22° C | 84% | 929.2 hPa | 0 mm | - | 0 W/m² | - |
| 1778197050 | 7.78° C | 83% | 929.2 hPa | 0 mm | - | 0 W/m² | - |
| 1778195250 | 7.78° C | 83% | 929.3 hPa | 0 mm | - | 0 W/m² | - |
| 1778193450 | 7.78° C | 85% | 929.2 hPa | 0 mm | - | 0 W/m² | - |
* Rain latest hour (hover to see other rain measurements)
** Current wind speed in m/s (hover to see current wind gust speed)